sensor_id;sensor_type;location;lat;lon;timestamp;temperature;humidity
67598;DHT22;62026;39.230;9.122;2023-06-24T00:00:13;25.70;56.50
67598;DHT22;62026;39.230;9.122;2023-06-24T00:02:42;25.70;56.40
67598;DHT22;62026;39.230;9.122;2023-06-24T00:05:10;25.70;56.50
67598;DHT22;62026;39.230;9.122;2023-06-24T00:07:36;25.70;56.50
67598;DHT22;62026;39.230;9.122;2023-06-24T00:10:14;25.60;56.40
67598;DHT22;62026;39.230;9.122;2023-06-24T00:12:40;25.60;56.60
67598;DHT22;62026;39.230;9.122;2023-06-24T00:15:07;25.60;56.70
67598;DHT22;62026;39.230;9.122;2023-06-24T00:17:37;25.60;56.70
67598;DHT22;62026;39.230;9.122;2023-06-24T00:20:04;25.60;56.80
67598;DHT22;62026;39.230;9.122;2023-06-24T00:22:32;25.50;57.00
67598;DHT22;62026;39.230;9.122;2023-06-24T00:24:58;25.50;57.00
67598;DHT22;62026;39.230;9.122;2023-06-24T00:27:26;25.50;57.20
67598;DHT22;62026;39.230;9.122;2023-06-24T00:29:52;25.40;57.20
67598;DHT22;62026;39.230;9.122;2023-06-24T00:32:18;25.40;57.40
67598;DHT22;62026;39.230;9.122;2023-06-24T00:34:44;25.40;57.30
67598;DHT22;62026;39.230;9.122;2023-06-24T00:37:13;25.40;57.40
67598;DHT22;62026;39.230;9.122;2023-06-24T00:39:40;25.40;57.30
67598;DHT22;62026;39.230;9.122;2023-06-24T00:42:06;25.40;57.40
67598;DHT22;62026;39.230;9.122;2023-06-24T00:44:32;25.40;57.50
67598;DHT22;62026;39.230;9.122;2023-06-24T00:46:59;25.30;57.60
67598;DHT22;62026;39.230;9.122;2023-06-24T00:49:27;25.30;57.50
67598;DHT22;62026;39.230;9.122;2023-06-24T00:51:53;25.30;57.60
67598;DHT22;62026;39.230;9.122;2023-06-24T00:54:21;25.30;57.70
67598;DHT22;62026;39.230;9.122;2023-06-24T00:56:47;25.30;57.80
67598;DHT22;62026;39.230;9.122;2023-06-24T00:59:15;25.20;57.90
67598;DHT22;62026;39.230;9.122;2023-06-24T01:01:43;25.20;58.00
67598;DHT22;62026;39.230;9.122;2023-06-24T01:04:11;25.20;58.20
67598;DHT22;62026;39.230;9.122;2023-06-24T01:06:37;25.20;58.20
67598;DHT22;62026;39.230;9.122;2023-06-24T01:09:09;25.20;58.30
67598;DHT22;62026;39.230;9.122;2023-06-24T01:11:35;25.20;58.30
67598;DHT22;62026;39.230;9.122;2023-06-24T01:14:01;25.20;58.40
67598;DHT22;62026;39.230;9.122;2023-06-24T01:17:03;25.10;58.50
67598;DHT22;62026;39.230;9.122;2023-06-24T01:34:36;25.10;58.60
67598;DHT22;62026;39.230;9.122;2023-06-24T01:40:12;25.00;58.60
67598;DHT22;62026;39.230;9.122;2023-06-24T01:42:42;25.10;58.60
67598;DHT22;62026;39.230;9.122;2023-06-24T01:45:16;25.10;58.60
67598;DHT22;62026;39.230;9.122;2023-06-24T01:47:54;25.10;58.60
67598;DHT22;62026;39.230;9.122;2023-06-24T01:50:32;25.00;58.60
67598;DHT22;62026;39.230;9.122;2023-06-24T01:53:04;25.00;58.70
67598;DHT22;62026;39.230;9.122;2023-06-24T01:55:34;25.00;58.60
67598;DHT22;62026;39.230;9.122;2023-06-24T01:58:05;25.00;58.80
67598;DHT22;62026;39.230;9.122;2023-06-24T02:00:33;25.10;58.70
67598;DHT22;62026;39.230;9.122;2023-06-24T02:03:02;25.10;58.60
67598;DHT22;62026;39.230;9.122;2023-06-24T02:05:31;25.10;58.60
67598;DHT22;62026;39.230;9.122;2023-06-24T02:08:01;25.10;58.60
67598;DHT22;62026;39.230;9.122;2023-06-24T02:10:29;25.00;58.70
67598;DHT22;62026;39.230;9.122;2023-06-24T02:12:57;25.00;58.90
67598;DHT22;62026;39.230;9.122;2023-06-24T02:15:26;24.90;59.10
67598;DHT22;62026;39.230;9.122;2023-06-24T02:17:54;24.90;59.10
67598;DHT22;62026;39.230;9.122;2023-06-24T02:20:23;24.90;59.20
67598;DHT22;62026;39.230;9.122;2023-06-24T02:22:53;24.90;59.30
67598;DHT22;62026;39.230;9.122;2023-06-24T02:25:22;24.80;59.40
67598;DHT22;62026;39.230;9.122;2023-06-24T02:27:49;24.80;59.50
67598;DHT22;62026;39.230;9.122;2023-06-24T02:30:16;24.80;59.50
67598;DHT22;62026;39.230;9.122;2023-06-24T02:32:43;24.80;59.70
67598;DHT22;62026;39.230;9.122;2023-06-24T02:35:09;24.70;59.80
67598;DHT22;62026;39.230;9.122;2023-06-24T02:37:35;24.80;59.90
67598;DHT22;62026;39.230;9.122;2023-06-24T02:40:01;24.70;60.10
67598;DHT22;62026;39.230;9.122;2023-06-24T02:42:28;24.70;60.20
67598;DHT22;62026;39.230;9.122;2023-06-24T02:44:55;24.70;60.30
67598;DHT22;62026;39.230;9.122;2023-06-24T02:47:21;24.60;60.40
67598;DHT22;62026;39.230;9.122;2023-06-24T02:49:49;24.60;60.70
67598;DHT22;62026;39.230;9.122;2023-06-24T02:52:17;24.60;60.80
67598;DHT22;62026;39.230;9.122;2023-06-24T02:54:44;24.60;60.70
67598;DHT22;62026;39.230;9.122;2023-06-24T02:57:30;24.60;60.80
67598;DHT22;62026;39.230;9.122;2023-06-24T03:00:16;24.60;60.90
67598;DHT22;62026;39.230;9.122;2023-06-24T03:03:06;24.60;61.10
67598;DHT22;62026;39.230;9.122;2023-06-24T03:05:35;24.60;61.20
67598;DHT22;62026;39.230;9.122;2023-06-24T03:08:02;24.60;61.40
67598;DHT22;62026;39.230;9.122;2023-06-24T03:10:30;24.50;61.70
67598;DHT22;62026;39.230;9.122;2023-06-24T03:12:57;24.50;61.90
67598;DHT22;62026;39.230;9.122;2023-06-24T03:15:31;24.50;62.00
67598;DHT22;62026;39.230;9.122;2023-06-24T03:17:58;24.60;62.10
67598;DHT22;62026;39.230;9.122;2023-06-24T03:20:24;24.60;62.10
67598;DHT22;62026;39.230;9.122;2023-06-24T03:22:50;24.50;62.30
67598;DHT22;62026;39.230;9.122;2023-06-24T03:25:20;24.50;62.40
67598;DHT22;62026;39.230;9.122;2023-06-24T03:27:47;24.50;62.60
67598;DHT22;62026;39.230;9.122;2023-06-24T03:30:14;24.50;62.80
67598;DHT22;62026;39.230;9.122;2023-06-24T03:32:41;24.50;62.90
67598;DHT22;62026;39.230;9.122;2023-06-24T03:35:13;24.50;63.00
67598;DHT22;62026;39.230;9.122;2023-06-24T03:37:39;24.50;63.20
67598;DHT22;62026;39.230;9.122;2023-06-24T03:40:06;24.50;63.20
67598;DHT22;62026;39.230;9.122;2023-06-24T03:42:34;24.40;63.60
67598;DHT22;62026;39.230;9.122;2023-06-24T03:45:03;24.40;63.70
67598;DHT22;62026;39.230;9.122;2023-06-24T03:47:29;24.40;63.80
67598;DHT22;62026;39.230;9.122;2023-06-24T03:49:55;24.40;64.00
67598;DHT22;62026;39.230;9.122;2023-06-24T03:52:21;24.40;63.90
67598;DHT22;62026;39.230;9.122;2023-06-24T03:54:48;24.40;63.90
67598;DHT22;62026;39.230;9.122;2023-06-24T03:57:15;24.40;64.10
67598;DHT22;62026;39.230;9.122;2023-06-24T03:59:41;24.40;64.20
67598;DHT22;62026;39.230;9.122;2023-06-24T04:02:07;24.40;64.50
67598;DHT22;62026;39.230;9.122;2023-06-24T04:04:36;24.40;64.40
67598;DHT22;62026;39.230;9.122;2023-06-24T04:07:03;24.40;64.40
67598;DHT22;62026;39.230;9.122;2023-06-24T04:09:35;24.40;64.60
67598;DHT22;62026;39.230;9.122;2023-06-24T04:12:01;24.40;64.70
67598;DHT22;62026;39.230;9.122;2023-06-24T04:14:33;24.40;64.90
67598;DHT22;62026;39.230;9.122;2023-06-24T04:16:59;24.40;64.80
67598;DHT22;62026;39.230;9.122;2023-06-24T04:19:25;24.40;64.90
67598;DHT22;62026;39.230;9.122;2023-06-24T04:21:51;24.50;65.00
67598;DHT22;62026;39.230;9.122;2023-06-24T04:24:17;24.40;65.00
67598;DHT22;62026;39.230;9.122;2023-06-24T04:26:43;24.50;65.10
67598;DHT22;62026;39.230;9.122;2023-06-24T04:29:09;24.50;65.20
67598;DHT22;62026;39.230;9.122;2023-06-24T04:31:35;24.50;65.20
67598;DHT22;62026;39.230;9.122;2023-06-24T04:34:01;24.50;65.30
67598;DHT22;62026;39.230;9.122;2023-06-24T04:36:28;24.40;65.30
67598;DHT22;62026;39.230;9.122;2023-06-24T04:38:54;24.40;65.50
67598;DHT22;62026;39.230;9.122;2023-06-24T04:41:20;24.40;65.60
67598;DHT22;62026;39.230;9.122;2023-06-24T04:43:46;24.50;65.60
67598;DHT22;62026;39.230;9.122;2023-06-24T04:46:12;24.50;65.50
67598;DHT22;62026;39.230;9.122;2023-06-24T04:48:37;24.50;65.60
67598;DHT22;62026;39.230;9.122;2023-06-24T04:51:03;24.50;65.40
67598;DHT22;62026;39.230;9.122;2023-06-24T04:53:29;24.50;65.30
67598;DHT22;62026;39.230;9.122;2023-06-24T04:55:55;24.60;65.30
67598;DHT22;62026;39.230;9.122;2023-06-24T04:58:21;24.60;65.40
67598;DHT22;62026;39.230;9.122;2023-06-24T05:00:47;24.60;65.30
67598;DHT22;62026;39.230;9.122;2023-06-24T05:03:14;24.70;65.40
67598;DHT22;62026;39.230;9.122;2023-06-24T05:05:40;24.70;65.50
67598;DHT22;62026;39.230;9.122;2023-06-24T05:08:05;24.70;65.40
67598;DHT22;62026;39.230;9.122;2023-06-24T05:10:31;24.80;65.20
67598;DHT22;62026;39.230;9.122;2023-06-24T05:12:57;24.80;65.10
67598;DHT22;62026;39.230;9.122;2023-06-24T05:15:23;24.90;65.00
67598;DHT22;62026;39.230;9.122;2023-06-24T05:17:50;24.90;65.00
67598;DHT22;62026;39.230;9.122;2023-06-24T05:20:16;25.00;64.90
67598;DHT22;62026;39.230;9.122;2023-06-24T05:22:43;25.00;64.90
67598;DHT22;62026;39.230;9.122;2023-06-24T05:25:09;25.10;64.80
67598;DHT22;62026;39.230;9.122;2023-06-24T05:27:35;25.10;64.50
67598;DHT22;62026;39.230;9.122;2023-06-24T05:30:01;25.20;64.40
67598;DHT22;62026;39.230;9.122;2023-06-24T05:32:28;25.30;64.20
67598;DHT22;62026;39.230;9.122;2023-06-24T05:34:54;25.40;63.90
67598;DHT22;62026;39.230;9.122;2023-06-24T05:37:20;25.40;64.10
67598;DHT22;62026;39.230;9.122;2023-06-24T05:39:46;25.50;63.80
67598;DHT22;62026;39.230;9.122;2023-06-24T05:42:12;25.60;63.40
67598;DHT22;62026;39.230;9.122;2023-06-24T05:44:38;25.70;63.50
67598;DHT22;62026;39.230;9.122;2023-06-24T05:47:04;25.70;63.40
67598;DHT22;62026;39.230;9.122;2023-06-24T05:49:30;25.80;63.40
67598;DHT22;62026;39.230;9.122;2023-06-24T05:51:56;25.90;63.00
67598;DHT22;62026;39.230;9.122;2023-06-24T05:54:23;25.90;62.80
67598;DHT22;62026;39.230;9.122;2023-06-24T05:56:49;26.00;62.90
67598;DHT22;62026;39.230;9.122;2023-06-24T05:59:15;26.00;62.70
67598;DHT22;62026;39.230;9.122;2023-06-24T06:01:41;26.10;62.50
67598;DHT22;62026;39.230;9.122;2023-06-24T06:04:07;26.10;62.50
67598;DHT22;62026;39.230;9.122;2023-06-24T06:06:34;26.20;62.30
67598;DHT22;62026;39.230;9.122;2023-06-24T06:09:00;26.20;62.20
67598;DHT22;62026;39.230;9.122;2023-06-24T06:11:26;26.20;62.10
67598;DHT22;62026;39.230;9.122;2023-06-24T06:13:52;26.40;61.80
67598;DHT22;62026;39.230;9.122;2023-06-24T06:16:18;26.40;61.60
67598;DHT22;62026;39.230;9.122;2023-06-24T06:18:44;26.50;61.50
67598;DHT22;62026;39.230;9.122;2023-06-24T06:21:10;26.50;61.50
67598;DHT22;62026;39.230;9.122;2023-06-24T06:23:36;26.60;61.30
67598;DHT22;62026;39.230;9.122;2023-06-24T06:26:02;26.60;61.10
67598;DHT22;62026;39.230;9.122;2023-06-24T06:28:28;26.60;60.90
67598;DHT22;62026;39.230;9.122;2023-06-24T06:30:54;26.70;60.80
67598;DHT22;62026;39.230;9.122;2023-06-24T06:33:22;26.80;60.50
67598;DHT22;62026;39.230;9.122;2023-06-24T06:35:48;26.90;60.50
67598;DHT22;62026;39.230;9.122;2023-06-24T06:38:15;27.00;60.40
67598;DHT22;62026;39.230;9.122;2023-06-24T06:40:41;27.00;60.30
67598;DHT22;62026;39.230;9.122;2023-06-24T06:43:07;27.10;60.20
67598;DHT22;62026;39.230;9.122;2023-06-24T06:45:33;27.10;59.50
67598;DHT22;62026;39.230;9.122;2023-06-24T06:47:59;27.20;59.20
67598;DHT22;62026;39.230;9.122;2023-06-24T06:50:25;27.20;58.70
67598;DHT22;62026;39.230;9.122;2023-06-24T06:52:51;27.20;58.90
67598;DHT22;62026;39.230;9.122;2023-06-24T06:55:17;27.30;58.80
67598;DHT22;62026;39.230;9.122;2023-06-24T06:57:43;27.40;58.60
67598;DHT22;62026;39.230;9.122;2023-06-24T07:00:10;27.50;58.50
67598;DHT22;62026;39.230;9.122;2023-06-24T07:02:36;27.70;58.20
67598;DHT22;62026;39.230;9.122;2023-06-24T07:05:02;27.70;58.30
67598;DHT22;62026;39.230;9.122;2023-06-24T07:07:28;27.70;57.90
67598;DHT22;62026;39.230;9.122;2023-06-24T07:09:54;27.70;58.00
67598;DHT22;62026;39.230;9.122;2023-06-24T07:12:20;27.80;57.80
67598;DHT22;62026;39.230;9.122;2023-06-24T07:14:46;27.90;57.10
67598;DHT22;62026;39.230;9.122;2023-06-24T07:17:12;28.00;56.70
67598;DHT22;62026;39.230;9.122;2023-06-24T07:19:38;28.00;55.70
67598;DHT22;62026;39.230;9.122;2023-06-24T07:22:04;28.10;55.40
67598;DHT22;62026;39.230;9.122;2023-06-24T07:24:31;28.30;54.90
67598;DHT22;62026;39.230;9.122;2023-06-24T07:26:56;28.30;54.50
67598;DHT22;62026;39.230;9.122;2023-06-24T07:29:22;28.40;54.40
67598;DHT22;62026;39.230;9.122;2023-06-24T07:31:49;28.50;54.40
67598;DHT22;62026;39.230;9.122;2023-06-24T07:34:15;28.60;54.10
67598;DHT22;62026;39.230;9.122;2023-06-24T07:36:40;28.60;53.40
67598;DHT22;62026;39.230;9.122;2023-06-24T07:39:06;28.50;53.20
67598;DHT22;62026;39.230;9.122;2023-06-24T07:41:32;28.60;53.20
67598;DHT22;62026;39.230;9.122;2023-06-24T07:43:59;28.60;52.80
67598;DHT22;62026;39.230;9.122;2023-06-24T07:46:25;28.70;52.90
67598;DHT22;62026;39.230;9.122;2023-06-24T07:48:53;28.80;52.60
67598;DHT22;62026;39.230;9.122;2023-06-24T07:51:19;28.90;52.00
67598;DHT22;62026;39.230;9.122;2023-06-24T07:53:45;29.00;51.80
67598;DHT22;62026;39.230;9.122;2023-06-24T07:56:11;29.00;51.80
67598;DHT22;62026;39.230;9.122;2023-06-24T07:58:37;29.10;51.60
67598;DHT22;62026;39.230;9.122;2023-06-24T08:01:04;29.20;51.10
67598;DHT22;62026;39.230;9.122;2023-06-24T08:03:30;29.40;50.90
67598;DHT22;62026;39.230;9.122;2023-06-24T08:05:56;29.60;50.70
67598;DHT22;62026;39.230;9.122;2023-06-24T08:08:22;29.70;50.20
67598;DHT22;62026;39.230;9.122;2023-06-24T08:10:48;29.70;50.20
67598;DHT22;62026;39.230;9.122;2023-06-24T08:13:14;29.70;49.90
67598;DHT22;62026;39.230;9.122;2023-06-24T08:15:40;29.80;49.70
67598;DHT22;62026;39.230;9.122;2023-06-24T08:18:06;30.00;49.00
67598;DHT22;62026;39.230;9.122;2023-06-24T08:20:32;29.90;49.00
67598;DHT22;62026;39.230;9.122;2023-06-24T08:22:58;30.00;48.90
67598;DHT22;62026;39.230;9.122;2023-06-24T08:25:24;30.00;48.90
67598;DHT22;62026;39.230;9.122;2023-06-24T08:27:50;30.10;48.90
67598;DHT22;62026;39.230;9.122;2023-06-24T08:30:16;30.20;48.40
67598;DHT22;62026;39.230;9.122;2023-06-24T08:32:42;30.20;47.90
67598;DHT22;62026;39.230;9.122;2023-06-24T08:35:09;30.30;48.00
67598;DHT22;62026;39.230;9.122;2023-06-24T08:37:36;30.30;48.60
67598;DHT22;62026;39.230;9.122;2023-06-24T08:40:04;30.40;48.20
67598;DHT22;62026;39.230;9.122;2023-06-24T08:42:30;30.50;48.20
67598;DHT22;62026;39.230;9.122;2023-06-24T08:44:57;30.70;48.00
67598;DHT22;62026;39.230;9.122;2023-06-24T08:47:27;30.70;47.70
67598;DHT22;62026;39.230;9.122;2023-06-24T08:50:07;30.80;47.20
67598;DHT22;62026;39.230;9.122;2023-06-24T08:52:38;30.70;47.00
67598;DHT22;62026;39.230;9.122;2023-06-24T08:55:12;30.60;47.30
67598;DHT22;62026;39.230;9.122;2023-06-24T08:57:41;30.80;47.20
67598;DHT22;62026;39.230;9.122;2023-06-24T09:00:08;30.60;46.90
67598;DHT22;62026;39.230;9.122;2023-06-24T09:02:38;30.80;46.80
67598;DHT22;62026;39.230;9.122;2023-06-24T09:05:05;31.00;46.70
67598;DHT22;62026;39.230;9.122;2023-06-24T09:07:32;31.00;46.20
67598;DHT22;62026;39.230;9.122;2023-06-24T09:09:58;30.90;45.90
67598;DHT22;62026;39.230;9.122;2023-06-24T09:12:26;30.80;46.00
67598;DHT22;62026;39.230;9.122;2023-06-24T09:14:52;30.80;45.90
67598;DHT22;62026;39.230;9.122;2023-06-24T09:17:19;30.90;45.80
67598;DHT22;62026;39.230;9.122;2023-06-24T09:19:48;31.00;45.40
67598;DHT22;62026;39.230;9.122;2023-06-24T09:22:15;31.10;45.00
67598;DHT22;62026;39.230;9.122;2023-06-24T09:24:45;31.10;44.80
67598;DHT22;62026;39.230;9.122;2023-06-24T09:27:14;31.20;44.70
67598;DHT22;62026;39.230;9.122;2023-06-24T09:29:42;31.30;44.50
67598;DHT22;62026;39.230;9.122;2023-06-24T09:32:09;31.40;44.10
67598;DHT22;62026;39.230;9.122;2023-06-24T09:34:35;31.40;43.90
67598;DHT22;62026;39.230;9.122;2023-06-24T09:37:01;31.40;43.70
67598;DHT22;62026;39.230;9.122;2023-06-24T09:39:28;31.50;43.50
67598;DHT22;62026;39.230;9.122;2023-06-24T09:42:02;31.60;43.70
67598;DHT22;62026;39.230;9.122;2023-06-24T09:44:30;31.50;44.20
67598;DHT22;62026;39.230;9.122;2023-06-24T09:46:56;31.40;44.30
67598;DHT22;62026;39.230;9.122;2023-06-24T09:49:23;31.20;44.40
67598;DHT22;62026;39.230;9.122;2023-06-24T09:51:54;31.30;43.70
67598;DHT22;62026;39.230;9.122;2023-06-24T09:54:27;31.20;43.30
67598;DHT22;62026;39.230;9.122;2023-06-24T09:56:55;31.40;42.80
67598;DHT22;62026;39.230;9.122;2023-06-24T09:59:27;31.60;43.00
67598;DHT22;62026;39.230;9.122;2023-06-24T10:01:53;31.80;43.20
67598;DHT22;62026;39.230;9.122;2023-06-24T10:04:21;31.70;43.40
67598;DHT22;62026;39.230;9.122;2023-06-24T10:06:50;31.60;43.50
67598;DHT22;62026;39.230;9.122;2023-06-24T10:09:17;31.70;43.60
67598;DHT22;62026;39.230;9.122;2023-06-24T10:11:46;31.70;43.50
67598;DHT22;62026;39.230;9.122;2023-06-24T10:14:17;31.80;43.50
67598;DHT22;62026;39.230;9.122;2023-06-24T10:16:44;31.90;42.90
67598;DHT22;62026;39.230;9.122;2023-06-24T10:19:10;31.80;43.30
67598;DHT22;62026;39.230;9.122;2023-06-24T10:21:46;31.80;42.90
67598;DHT22;62026;39.230;9.122;2023-06-24T10:24:35;31.90;42.90
67598;DHT22;62026;39.230;9.122;2023-06-24T10:27:15;31.90;42.90
67598;DHT22;62026;39.230;9.122;2023-06-24T10:29:48;31.80;42.90
67598;DHT22;62026;39.230;9.122;2023-06-24T10:32:15;31.90;42.50
67598;DHT22;62026;39.230;9.122;2023-06-24T10:37:14;32.00;42.50
67598;DHT22;62026;39.230;9.122;2023-06-24T10:39:48;32.00;42.30
67598;DHT22;62026;39.230;9.122;2023-06-24T10:42:27;31.90;42.50
67598;DHT22;62026;39.230;9.122;2023-06-24T10:44:59;31.80;42.80
67598;DHT22;62026;39.230;9.122;2023-06-24T10:47:40;31.70;42.70
67598;DHT22;62026;39.230;9.122;2023-06-24T10:50:08;31.70;42.60
67598;DHT22;62026;39.230;9.122;2023-06-24T10:52:40;31.70;42.50
67598;DHT22;62026;39.230;9.122;2023-06-24T10:55:08;31.70;42.30
67598;DHT22;62026;39.230;9.122;2023-06-24T10:57:35;31.80;42.00
67598;DHT22;62026;39.230;9.122;2023-06-24T11:00:03;31.80;41.80
67598;DHT22;62026;39.230;9.122;2023-06-24T11:02:30;31.70;42.00
67598;DHT22;62026;39.230;9.122;2023-06-24T11:04:58;31.70;42.10
67598;DHT22;62026;39.230;9.122;2023-06-24T11:07:30;31.70;42.40
67598;DHT22;62026;39.230;9.122;2023-06-24T11:10:00;31.70;42.10
67598;DHT22;62026;39.230;9.122;2023-06-24T11:12:31;31.60;42.30
67598;DHT22;62026;39.230;9.122;2023-06-24T11:15:04;31.60;42.50
67598;DHT22;62026;39.230;9.122;2023-06-24T11:17:34;31.70;42.30
67598;DHT22;62026;39.230;9.122;2023-06-24T11:20:01;31.60;42.50
67598;DHT22;62026;39.230;9.122;2023-06-24T11:22:31;31.70;42.60
67598;DHT22;62026;39.230;9.122;2023-06-24T11:24:57;31.90;42.50
67598;DHT22;62026;39.230;9.122;2023-06-24T11:27:28;31.70;42.30
67598;DHT22;62026;39.230;9.122;2023-06-24T11:30:00;31.70;42.60
67598;DHT22;62026;39.230;9.122;2023-06-24T11:32:37;31.60;42.90
67598;DHT22;62026;39.230;9.122;2023-06-24T11:35:05;31.70;43.00
67598;DHT22;62026;39.230;9.122;2023-06-24T11:37:33;31.70;43.00
67598;DHT22;62026;39.230;9.122;2023-06-24T11:40:06;31.90;42.80
67598;DHT22;62026;39.230;9.122;2023-06-24T11:42:40;31.80;42.90
67598;DHT22;62026;39.230;9.122;2023-06-24T11:45:11;31.80;42.90
67598;DHT22;62026;39.230;9.122;2023-06-24T11:47:39;31.70;42.90
67598;DHT22;62026;39.230;9.122;2023-06-24T11:50:07;31.70;43.10
67598;DHT22;62026;39.230;9.122;2023-06-24T11:52:39;30.80;48.40
67598;DHT22;62026;39.230;9.122;2023-06-24T11:55:23;29.80;51.30
67598;DHT22;62026;39.230;9.122;2023-06-24T11:57:55;29.50;51.60
67598;DHT22;62026;39.230;9.122;2023-06-24T12:00:32;29.60;50.50
67598;DHT22;62026;39.230;9.122;2023-06-24T12:03:04;29.30;50.30
67598;DHT22;62026;39.230;9.122;2023-06-24T12:05:34;29.50;49.90
67598;DHT22;62026;39.230;9.122;2023-06-24T12:08:09;29.70;49.30
67598;DHT22;62026;39.230;9.122;2023-06-24T12:10:38;29.70;49.00
67598;DHT22;62026;39.230;9.122;2023-06-24T12:13:05;29.40;49.10
67598;DHT22;62026;39.230;9.122;2023-06-24T12:15:34;29.30;49.60
67598;DHT22;62026;39.230;9.122;2023-06-24T12:18:01;29.00;49.70
67598;DHT22;62026;39.230;9.122;2023-06-24T12:20:31;29.00;49.80
67598;DHT22;62026;39.230;9.122;2023-06-24T12:22:58;28.90;49.80
67598;DHT22;62026;39.230;9.122;2023-06-24T12:25:24;29.10;49.60
67598;DHT22;62026;39.230;9.122;2023-06-24T12:27:50;29.10;49.40
67598;DHT22;62026;39.230;9.122;2023-06-24T12:30:17;29.30;48.90
67598;DHT22;62026;39.230;9.122;2023-06-24T12:32:43;29.30;49.30
67598;DHT22;62026;39.230;9.122;2023-06-24T12:35:10;29.10;50.20
67598;DHT22;62026;39.230;9.122;2023-06-24T12:37:36;29.10;50.40
67598;DHT22;62026;39.230;9.122;2023-06-24T12:40:03;29.10;49.90
67598;DHT22;62026;39.230;9.122;2023-06-24T12:42:30;29.20;50.00
67598;DHT22;62026;39.230;9.122;2023-06-24T12:44:56;29.00;50.40
67598;DHT22;62026;39.230;9.122;2023-06-24T12:47:22;29.00;50.30
67598;DHT22;62026;39.230;9.122;2023-06-24T12:49:49;29.10;49.90
67598;DHT22;62026;39.230;9.122;2023-06-24T12:52:16;29.20;49.70
67598;DHT22;62026;39.230;9.122;2023-06-24T12:54:42;28.90;50.20
67598;DHT22;62026;39.230;9.122;2023-06-24T12:57:08;29.00;49.80
67598;DHT22;62026;39.230;9.122;2023-06-24T12:59:34;29.20;49.50
67598;DHT22;62026;39.230;9.122;2023-06-24T13:02:01;29.30;49.50
67598;DHT22;62026;39.230;9.122;2023-06-24T13:04:27;29.30;48.30
67598;DHT22;62026;39.230;9.122;2023-06-24T13:06:53;29.20;48.50
67598;DHT22;62026;39.230;9.122;2023-06-24T13:09:20;29.10;48.10
67598;DHT22;62026;39.230;9.122;2023-06-24T13:11:46;29.00;48.30
67598;DHT22;62026;39.230;9.122;2023-06-24T13:14:12;29.00;48.10
67598;DHT22;62026;39.230;9.122;2023-06-24T13:16:39;29.10;47.90
67598;DHT22;62026;39.230;9.122;2023-06-24T13:19:05;29.00;48.50
67598;DHT22;62026;39.230;9.122;2023-06-24T13:21:31;28.80;48.60
67598;DHT22;62026;39.230;9.122;2023-06-24T13:23:57;28.80;48.30
67598;DHT22;62026;39.230;9.122;2023-06-24T13:26:23;28.80;48.60
67598;DHT22;62026;39.230;9.122;2023-06-24T13:28:50;28.80;48.10
67598;DHT22;62026;39.230;9.122;2023-06-24T13:31:16;28.80;48.20
67598;DHT22;62026;39.230;9.122;2023-06-24T13:33:42;28.70;47.90
67598;DHT22;62026;39.230;9.122;2023-06-24T13:36:25;28.70;48.20
67598;DHT22;62026;39.230;9.122;2023-06-24T13:38:57;28.60;48.20
67598;DHT22;62026;39.230;9.122;2023-06-24T13:41:24;28.60;48.10
67598;DHT22;62026;39.230;9.122;2023-06-24T13:43:52;28.60;48.30
67598;DHT22;62026;39.230;9.122;2023-06-24T13:46:19;28.70;48.00
67598;DHT22;62026;39.230;9.122;2023-06-24T13:48:45;28.60;48.00
67598;DHT22;62026;39.230;9.122;2023-06-24T13:51:11;28.50;48.50
67598;DHT22;62026;39.230;9.122;2023-06-24T13:53:36;28.40;48.40
67598;DHT22;62026;39.230;9.122;2023-06-24T13:56:03;28.50;48.70
67598;DHT22;62026;39.230;9.122;2023-06-24T13:58:29;28.50;48.50
67598;DHT22;62026;39.230;9.122;2023-06-24T14:00:55;28.50;48.80
67598;DHT22;62026;39.230;9.122;2023-06-24T14:03:21;28.60;48.90
67598;DHT22;62026;39.230;9.122;2023-06-24T14:05:47;28.60;48.90
67598;DHT22;62026;39.230;9.122;2023-06-24T14:08:13;28.60;48.80
67598;DHT22;62026;39.230;9.122;2023-06-24T14:10:39;28.60;49.50
67598;DHT22;62026;39.230;9.122;2023-06-24T14:13:05;28.50;50.40
67598;DHT22;62026;39.230;9.122;2023-06-24T14:15:31;28.50;50.20
67598;DHT22;62026;39.230;9.122;2023-06-24T14:17:57;28.50;50.30
67598;DHT22;62026;39.230;9.122;2023-06-24T14:20:23;28.40;50.30
67598;DHT22;62026;39.230;9.122;2023-06-24T14:22:50;28.40;50.00
67598;DHT22;62026;39.230;9.122;2023-06-24T14:25:17;28.50;50.70
67598;DHT22;62026;39.230;9.122;2023-06-24T14:27:44;28.40;50.90
67598;DHT22;62026;39.230;9.122;2023-06-24T14:30:10;28.30;51.40
67598;DHT22;62026;39.230;9.122;2023-06-24T14:32:37;28.30;52.50
67598;DHT22;62026;39.230;9.122;2023-06-24T14:35:03;28.40;52.30
67598;DHT22;62026;39.230;9.122;2023-06-24T14:37:30;28.20;51.10
67598;DHT22;62026;39.230;9.122;2023-06-24T14:39:56;28.30;52.10
67598;DHT22;62026;39.230;9.122;2023-06-24T14:42:22;28.30;51.80
67598;DHT22;62026;39.230;9.122;2023-06-24T14:44:48;28.40;51.90
67598;DHT22;62026;39.230;9.122;2023-06-24T14:47:14;28.50;51.60
67598;DHT22;62026;39.230;9.122;2023-06-24T14:49:40;28.50;51.20
67598;DHT22;62026;39.230;9.122;2023-06-24T14:52:06;28.50;50.00
67598;DHT22;62026;39.230;9.122;2023-06-24T14:54:32;28.60;51.20
67598;DHT22;62026;39.230;9.122;2023-06-24T14:56:58;28.60;50.40
67598;DHT22;62026;39.230;9.122;2023-06-24T14:59:24;28.50;50.40
67598;DHT22;62026;39.230;9.122;2023-06-24T15:01:50;28.60;51.40
67598;DHT22;62026;39.230;9.122;2023-06-24T15:04:16;28.60;51.00
67598;DHT22;62026;39.230;9.122;2023-06-24T15:06:42;28.60;51.40
67598;DHT22;62026;39.230;9.122;2023-06-24T15:09:08;28.50;51.40
67598;DHT22;62026;39.230;9.122;2023-06-24T15:11:34;28.40;51.70
67598;DHT22;62026;39.230;9.122;2023-06-24T15:14:00;28.30;51.70
67598;DHT22;62026;39.230;9.122;2023-06-24T15:16:26;28.30;52.00
67598;DHT22;62026;39.230;9.122;2023-06-24T15:18:52;28.20;53.00
67598;DHT22;62026;39.230;9.122;2023-06-24T15:21:19;28.30;54.10
67598;DHT22;62026;39.230;9.122;2023-06-24T15:23:45;28.30;54.40
67598;DHT22;62026;39.230;9.122;2023-06-24T15:26:12;28.20;55.50
67598;DHT22;62026;39.230;9.122;2023-06-24T15:28:38;28.20;56.10
67598;DHT22;62026;39.230;9.122;2023-06-24T15:31:04;28.30;57.50
67598;DHT22;62026;39.230;9.122;2023-06-24T15:33:30;28.40;57.20
67598;DHT22;62026;39.230;9.122;2023-06-24T15:35:56;28.40;56.10
67598;DHT22;62026;39.230;9.122;2023-06-24T15:38:23;28.30;54.60
67598;DHT22;62026;39.230;9.122;2023-06-24T15:40:49;28.30;54.80
67598;DHT22;62026;39.230;9.122;2023-06-24T15:43:15;28.30;56.50
67598;DHT22;62026;39.230;9.122;2023-06-24T15:45:41;28.20;57.20
67598;DHT22;62026;39.230;9.122;2023-06-24T15:48:07;28.20;58.50
67598;DHT22;62026;39.230;9.122;2023-06-24T15:50:33;28.20;57.20
67598;DHT22;62026;39.230;9.122;2023-06-24T15:52:59;28.20;56.40